createdAt,value
2018-03-20T00:00:14.944Z,97.06
2018-03-20T00:01:14.956Z,96.78
2018-03-20T00:02:14.991Z,96.68
2018-03-20T00:03:15.034Z,96.96
2018-03-20T00:04:15.068Z,97.15
2018-03-20T00:05:15.142Z,96.87
2018-03-20T00:06:15.152Z,97.06
2018-03-20T00:07:15.186Z,97.25
2018-03-20T00:08:15.227Z,97.91
2018-03-20T00:09:15.266Z,97.72
2018-03-20T00:10:15.345Z,97.06
2018-03-20T00:11:15.342Z,97.06
2018-03-20T00:12:15.381Z,97.06
2018-03-20T00:13:15.419Z,96.40
2018-03-20T00:14:15.461Z,96.30
2018-03-20T00:15:15.535Z,96.40
2018-03-20T00:16:15.540Z,96.21
2018-03-20T00:17:15.575Z,96.49
2018-03-20T00:18:15.613Z,96.21
2018-03-20T00:19:15.662Z,96.87
2018-03-20T00:20:15.726Z,97.25
2018-03-20T00:21:15.732Z,97.15
2018-03-20T00:22:15.771Z,97.44
2018-03-20T00:23:15.809Z,97.34
2018-03-20T00:24:15.846Z,96.30
2018-03-20T00:25:15.910Z,97.25
2018-03-20T00:26:15.926Z,96.78
2018-03-20T00:27:15.965Z,97.15
2018-03-20T00:28:16.003Z,97.25
2018-03-20T00:29:16.042Z,96.87
2018-03-20T00:30:16.112Z,97.53
2018-03-20T00:31:16.121Z,97.91
2018-03-20T00:32:16.161Z,97.15
2018-03-20T00:33:16.203Z,97.25
2018-03-20T00:34:16.236Z,96.87
2018-03-20T00:35:16.308Z,97.06
2018-03-20T00:36:16.313Z,96.78
2018-03-20T00:37:16.352Z,96.21
2018-03-20T00:38:16.392Z,96.30
2018-03-20T00:39:16.430Z,96.68
2018-03-20T00:40:16.810Z,97.25
2018-03-20T00:41:16.506Z,97.25
2018-03-20T00:42:16.549Z,97.72
2018-03-20T00:43:16.589Z,97.25
2018-03-20T00:44:16.624Z,97.63
2018-03-20T00:45:16.662Z,97.44
2018-03-20T00:46:16.725Z,97.06
2018-03-20T00:47:16.774Z,96.87
2018-03-20T00:48:16.780Z,97.15
2018-03-20T00:49:16.818Z,96.68
2018-03-20T00:50:16.856Z,97.06
2018-03-20T00:51:16.940Z,97.25
2018-03-20T00:52:16.966Z,96.87
2018-03-20T00:53:16.974Z,97.15
2018-03-20T00:54:17.013Z,97.34
2018-03-20T00:55:17.050Z,97.44
2018-03-20T00:56:17.090Z,98.10
2018-03-20T00:57:17.172Z,97.91
2018-03-20T00:58:17.168Z,97.53
2018-03-20T00:59:17.206Z,97.44
2018-03-20T01:00:17.245Z,97.44
2018-03-20T01:01:17.284Z,97.91
2018-03-20T01:02:17.356Z,97.06
2018-03-20T01:03:17.362Z,97.06
2018-03-20T01:04:17.404Z,97.53
2018-03-20T01:05:17.440Z,97.91
2018-03-20T01:06:17.479Z,97.72
2018-03-20T01:07:17.549Z,97.25
2018-03-20T01:08:17.556Z,96.59
2018-03-20T01:09:17.595Z,96.49
2018-03-20T01:10:17.636Z,97.25
2018-03-20T01:11:17.672Z,96.21
2018-03-20T01:12:17.758Z,96.21
2018-03-20T01:13:17.749Z,96.30
2018-03-20T01:14:17.798Z,96.02
2018-03-20T01:15:17.825Z,96.68
2018-03-20T01:16:17.874Z,96.87
2018-03-20T01:17:18.457Z,97.25
2018-03-20T01:18:17.943Z,96.87
2018-03-20T01:19:17.982Z,96.30
2018-03-20T01:20:18.023Z,96.40
2018-03-20T01:21:18.061Z,96.11
2018-03-20T01:22:18.123Z,96.11
2018-03-20T01:23:18.137Z,96.21
2018-03-20T01:24:18.200Z,96.11
2018-03-20T01:25:18.232Z,96.02
2018-03-20T01:26:18.264Z,96.30
2018-03-20T01:27:18.294Z,96.02
2018-03-20T01:28:18.354Z,96.02
2018-03-20T01:29:18.410Z,96.11
2018-03-20T01:30:18.409Z,96.30
2018-03-20T01:31:18.450Z,96.49
2018-03-20T01:32:18.489Z,95.92
2018-03-20T01:33:18.527Z,96.30
2018-03-20T01:34:18.586Z,96.02
2018-03-20T01:35:18.601Z,96.21
2018-03-20T01:36:18.640Z,95.73
2018-03-20T01:37:18.685Z,95.64
2018-03-20T01:38:18.717Z,95.45
2018-03-20T01:39:18.781Z,96.02
2018-03-20T01:40:18.817Z,95.64
2018-03-20T01:41:18.836Z,95.64
2018-03-20T01:42:18.874Z,96.21
2018-03-20T01:43:18.912Z,95.92
2018-03-20T01:44:18.948Z,95.17
2018-03-20T01:45:19.034Z,95.36
2018-03-20T01:46:19.031Z,95.45
2018-03-20T01:47:19.064Z,96.30
2018-03-20T01:48:19.109Z,96.30
2018-03-20T01:49:19.143Z,95.64
2018-03-20T01:50:19.219Z,95.45
2018-03-20T01:51:19.220Z,96.11
2018-03-20T01:52:19.261Z,95.45
2018-03-20T01:53:19.302Z,95.45
2018-03-20T01:54:19.337Z,95.64
2018-03-20T01:55:19.411Z,95.17
2018-03-20T01:56:19.412Z,95.64
2018-03-20T01:57:19.453Z,95.64
2018-03-20T01:58:19.496Z,96.21
2018-03-20T01:59:19.531Z,95.45
2018-03-20T02:00:19.591Z,95.64
2018-03-20T02:01:19.630Z,95.73
2018-03-20T02:02:19.646Z,95.45
2018-03-20T02:03:19.684Z,96.02
2018-03-20T02:04:19.723Z,96.30
2018-03-20T02:05:19.763Z,95.92
2018-03-20T02:06:19.824Z,95.73
2018-03-20T02:07:19.840Z,97.06
2018-03-20T02:08:19.879Z,97.34
2018-03-20T02:09:19.920Z,96.78
2018-03-20T02:10:19.959Z,96.59
2018-03-20T02:11:20.028Z,96.40
2018-03-20T02:12:20.032Z,96.11
2018-03-20T02:13:20.071Z,96.30
2018-03-20T02:14:20.114Z,95.92
2018-03-20T02:15:20.145Z,96.02
2018-03-20T02:16:20.227Z,96.49
2018-03-20T02:17:20.226Z,96.40
2018-03-20T02:18:20.266Z,96.30
2018-03-20T02:19:20.300Z,96.30
2018-03-20T02:20:20.341Z,95.83
2018-03-20T02:21:20.418Z,96.11
2018-03-20T02:22:20.423Z,96.40
2018-03-20T02:23:20.457Z,96.30
2018-03-20T02:24:20.502Z,95.45
2018-03-20T02:25:20.537Z,96.21
2018-03-20T02:26:20.605Z,96.30
2018-03-20T02:27:20.611Z,96.21
2018-03-20T02:28:20.649Z,96.87
2018-03-20T02:29:20.688Z,96.21
2018-03-20T02:30:20.729Z,96.68
2018-03-20T02:31:20.809Z,96.21
2018-03-20T02:32:20.805Z,96.40
2018-03-20T02:33:20.851Z,95.92
2018-03-20T02:34:20.882Z,95.83
2018-03-20T02:35:20.928Z,96.21
2018-03-20T02:36:20.993Z,96.40
2018-03-20T02:37:20.999Z,95.73
2018-03-20T02:38:21.038Z,96.59
2018-03-20T02:39:21.076Z,96.49
2018-03-20T02:40:21.114Z,96.68
2018-03-20T02:41:21.186Z,96.87
2018-03-20T02:42:21.194Z,97.25
2018-03-20T02:43:21.231Z,97.25
2018-03-20T02:44:21.269Z,96.96
2018-03-20T02:45:21.318Z,97.15
2018-03-20T02:46:21.385Z,97.25
2018-03-20T02:47:21.388Z,97.06
2018-03-20T02:48:21.426Z,96.68
2018-03-20T02:49:21.463Z,97.34
2018-03-20T02:50:21.501Z,97.53
2018-03-20T02:51:21.577Z,97.25
2018-03-20T02:52:21.583Z,96.87
2018-03-20T02:53:21.618Z,96.68
2018-03-20T02:54:21.680Z,97.81
2018-03-20T02:55:21.698Z,97.06
2018-03-20T02:56:21.767Z,97.06
2018-03-20T02:57:21.772Z,96.68
2018-03-20T02:58:21.810Z,96.21
2018-03-20T02:59:21.849Z,96.30
2018-03-20T03:00:21.888Z,96.30
2018-03-20T03:01:21.959Z,95.92
2018-03-20T03:02:21.966Z,97.15
2018-03-20T03:03:22.006Z,97.06
2018-03-20T03:04:22.043Z,96.30
2018-03-20T03:05:22.079Z,97.53
2018-03-20T03:06:22.161Z,97.63
2018-03-20T03:07:22.157Z,97.44
2018-03-20T03:08:22.197Z,97.06
2018-03-20T03:09:22.243Z,97.15
2018-03-20T03:10:22.276Z,97.91
2018-03-20T03:11:22.334Z,96.87
2018-03-20T03:12:22.397Z,97.01
2018-03-20T03:13:22.415Z,96.87
2018-03-20T03:14:22.428Z,97.06
2018-03-20T03:15:22.468Z,97.06
2018-03-20T03:16:22.505Z,96.87
2018-03-20T03:17:22.553Z,97.01
2018-03-20T03:18:22.613Z,97.06
2018-03-20T03:19:22.621Z,96.54
2018-03-20T03:20:22.658Z,97.25
2018-03-20T03:21:22.698Z,96.96
2018-03-20T03:22:22.735Z,97.72
2018-03-20T03:23:22.808Z,97.06
2018-03-20T03:24:22.812Z,97.25
2018-03-20T03:25:22.851Z,97.25
2018-03-20T03:26:22.898Z,97.25
2018-03-20T03:27:22.929Z,96.59
2018-03-20T03:28:22.989Z,96.11
2018-03-20T03:29:23.004Z,96.02
2018-03-20T03:30:23.067Z,97.25
2018-03-20T03:31:23.080Z,96.59
2018-03-20T03:32:23.121Z,96.96
2018-03-20T03:33:23.163Z,95.73
2018-03-20T03:34:23.222Z,96.21
2018-03-20T03:35:23.260Z,96.68
2018-03-20T03:36:23.275Z,96.87
2018-03-20T03:37:23.311Z,96.11
2018-03-20T03:38:23.351Z,97.06
2018-03-20T03:39:23.412Z,96.68
2018-03-20T03:40:23.429Z,95.45
2018-03-20T03:41:23.466Z,96.11
2018-03-20T03:42:23.529Z,95.92
2018-03-20T03:43:23.544Z,96.40
2018-03-20T03:44:23.584Z,95.83
2018-03-20T03:45:23.636Z,96.40
2018-03-20T03:46:23.786Z,96.21
2018-03-20T03:47:23.696Z,97.06
2018-03-20T03:48:23.737Z,97.06
2018-03-20T03:49:24.436Z,96.21
2018-03-20T03:50:23.812Z,96.49
2018-03-20T03:51:23.873Z,96.21
2018-03-20T03:52:23.934Z,95.40
2018-03-20T03:53:23.927Z,95.36
2018-03-20T03:54:23.965Z,95.31
2018-03-20T03:55:24.005Z,95.45
2018-03-20T03:56:24.044Z,94.79
2018-03-20T03:57:24.113Z,95.73
2018-03-20T03:58:24.118Z,95.54
2018-03-20T03:59:24.156Z,95.54
2018-03-20T04:00:24.194Z,95.36
2018-03-20T04:01:24.290Z,95.54
2018-03-20T04:02:24.305Z,94.79
2018-03-20T04:03:24.309Z,94.22
2018-03-20T04:04:24.348Z,95.03
2018-03-20T04:05:24.396Z,94.65
2018-03-20T04:06:24.428Z,94.74
2018-03-20T04:07:24.493Z,94.74
2018-03-20T04:08:25.231Z,95.12
2018-03-20T04:09:24.540Z,95.50
2018-03-20T04:10:24.579Z,94.65
2018-03-20T04:11:24.617Z,94.93
2018-03-20T04:12:24.681Z,94.46
2018-03-20T04:13:24.692Z,94.74
2018-03-20T04:14:24.761Z,94.93
2018-03-20T04:15:24.781Z,94.93
2018-03-20T04:16:24.812Z,95.87
2018-03-20T04:17:24.855Z,95.97
2018-03-20T04:18:24.887Z,94.74
2018-03-20T04:19:24.959Z,94.89
2018-03-20T04:20:24.963Z,94.89
2018-03-20T04:21:25.001Z,94.32
2018-03-20T04:22:25.041Z,94.03
2018-03-20T04:23:25.076Z,94.13
2018-03-20T04:24:25.162Z,94.18
2018-03-20T04:25:25.155Z,94.13
2018-03-20T04:26:25.193Z,94.79
2018-03-20T04:27:25.231Z,94.89
2018-03-20T04:28:25.273Z,94.22
2018-03-20T04:29:25.338Z,93.80
2018-03-20T04:30:25.348Z,93.18
2018-03-20T04:31:25.382Z,92.71
2018-03-20T04:32:25.423Z,92.94
2018-03-20T04:33:25.462Z,93.18
2018-03-20T04:34:25.531Z,93.09
2018-03-20T04:35:25.538Z,92.43
2018-03-20T04:36:25.576Z,93.09
2018-03-20T04:37:25.615Z,92.85
2018-03-20T04:38:25.654Z,92.90
2018-03-20T04:39:25.731Z,92.90
2018-03-20T04:40:25.729Z,92.85
2018-03-20T04:41:25.768Z,92.57
2018-03-20T04:42:25.807Z,92.99
2018-03-20T04:43:25.843Z,92.47
2018-03-20T04:44:25.905Z,92.57
2018-03-20T04:45:25.952Z,93.13
2018-03-20T04:46:25.959Z,93.09
2018-03-20T04:47:25.997Z,92.94
2018-03-20T04:48:26.037Z,91.72
2018-03-20T04:49:26.076Z,90.96
2018-03-20T04:50:26.135Z,90.87
2018-03-20T04:51:26.152Z,90.87
2018-03-20T04:52:26.193Z,90.96
2018-03-20T04:53:26.228Z,91.25
2018-03-20T04:54:26.266Z,89.92
2018-03-20T04:55:26.327Z,88.89
2018-03-20T04:56:26.363Z,89.73
2018-03-20T04:57:26.382Z,89.73
2018-03-20T04:58:26.419Z,90.21
2018-03-20T04:59:26.457Z,90.02
2018-03-20T05:00:26.496Z,89.92
2018-03-20T05:01:26.557Z,89.36
2018-03-20T05:02:26.572Z,88.23
2018-03-20T05:03:26.610Z,88.32
2018-03-20T05:04:26.649Z,90.02
2018-03-20T05:05:26.686Z,90.02
2018-03-20T05:06:26.754Z,88.98
2018-03-20T05:07:26.764Z,87.85
2018-03-20T05:08:26.800Z,87.75
2018-03-20T05:09:26.840Z,87.09
2018-03-20T05:10:26.877Z,86.80
2018-03-20T05:11:26.941Z,86.62
2018-03-20T05:12:26.977Z,86.90
2018-03-20T05:13:26.993Z,87.66
2018-03-20T05:14:27.038Z,87.37
2018-03-20T05:15:27.072Z,87.37
2018-03-20T05:16:27.108Z,88.23
2018-03-20T05:17:27.170Z,88.04
2018-03-20T05:18:27.255Z,87.37
2018-03-20T05:19:27.223Z,87.09
2018-03-20T05:20:27.262Z,86.90
2018-03-20T05:21:27.301Z,87.56
2018-03-20T05:22:27.337Z,87.66
2018-03-20T05:23:27.398Z,87.37
2018-03-20T05:24:27.413Z,87.75
2018-03-20T05:25:27.454Z,88.04
2018-03-20T05:26:27.493Z,88.98
2018-03-20T05:27:27.528Z,89.26
2018-03-20T05:28:27.600Z,88.98
2018-03-20T05:29:27.612Z,87.94
2018-03-20T05:30:27.643Z,87.66
2018-03-20T05:31:27.680Z,88.13
2018-03-20T05:32:27.726Z,88.23
2018-03-20T05:33:27.787Z,88.23
2018-03-20T05:34:27.799Z,88.13
2018-03-20T05:35:27.833Z,88.70
2018-03-20T05:36:27.871Z,88.89
2018-03-20T05:37:27.911Z,88.51
2018-03-20T05:38:28.006Z,89.54
2018-03-20T05:39:27.984Z,89.54
2018-03-20T05:40:28.021Z,89.36
2018-03-20T05:41:28.060Z,88.89
2018-03-20T05:42:28.104Z,88.42
2018-03-20T05:43:28.160Z,88.32
2018-03-20T05:44:28.174Z,88.32
2018-03-20T05:45:28.242Z,88.51
2018-03-20T05:46:28.253Z,88.04
2018-03-20T05:47:28.290Z,87.85
2018-03-20T05:48:28.332Z,88.98
2018-03-20T05:49:28.396Z,88.04
2018-03-20T05:50:28.428Z,87.37
2018-03-20T05:51:28.443Z,87.56
2018-03-20T05:52:28.481Z,87.37
2018-03-20T05:53:28.520Z,86.80
2018-03-20T05:54:28.580Z,86.99
2018-03-20T05:55:28.619Z,86.33
2018-03-20T05:56:28.635Z,86.24
2018-03-20T05:57:28.673Z,87.28
2018-03-20T05:58:28.710Z,87.85
2018-03-20T05:59:28.771Z,87.37
2018-03-20T06:00:28.788Z,87.28
2018-03-20T06:01:28.849Z,87.66
2018-03-20T06:02:28.866Z,87.37
2018-03-20T06:03:28.901Z,87.37
2018-03-20T06:04:28.938Z,86.80
2018-03-20T06:05:28.978Z,87.09
2018-03-20T06:06:29.038Z,87.37
2018-03-20T06:07:29.054Z,86.62
2018-03-20T06:08:29.091Z,87.18
2018-03-20T06:09:29.131Z,87.18
2018-03-20T06:10:29.168Z,86.80
2018-03-20T06:11:29.241Z,86.99
2018-03-20T06:12:29.246Z,87.09
2018-03-20T06:13:29.285Z,86.47
2018-03-20T06:14:29.324Z,86.57
2018-03-20T06:15:29.364Z,86.33
2018-03-20T06:16:29.443Z,86.38
2018-03-20T06:17:29.447Z,86.47
2018-03-20T06:18:29.477Z,86.00
2018-03-20T06:19:29.513Z,85.91
2018-03-20T06:20:29.553Z,85.53
2018-03-20T06:21:29.624Z,86.10
2018-03-20T06:22:29.630Z,86.29
2018-03-20T06:23:29.668Z,86.33
2018-03-20T06:24:29.706Z,86.57
2018-03-20T06:25:29.744Z,86.66
2018-03-20T06:26:29.818Z,86.85
2018-03-20T06:27:29.823Z,86.29
2018-03-20T06:28:29.863Z,85.43
2018-03-20T06:29:29.898Z,86.00
2018-03-20T06:30:29.940Z,86.29
2018-03-20T06:31:29.997Z,85.72
2018-03-20T06:32:30.013Z,86.10
2018-03-20T06:33:30.052Z,85.72
2018-03-20T06:34:30.112Z,85.34
2018-03-20T06:35:30.129Z,85.43
2018-03-20T06:36:30.171Z,85.53
2018-03-20T06:37:30.230Z,85.34
2018-03-20T06:38:30.332Z,84.68
2018-03-20T06:39:30.284Z,84.68
2018-03-20T06:40:30.324Z,84.68
2018-03-20T06:41:30.362Z,84.86
2018-03-20T06:42:30.424Z,85.34
2018-03-20T06:43:30.442Z,85.05
2018-03-20T06:44:30.475Z,85.24
2018-03-20T06:45:30.539Z,86.10
2018-03-20T06:46:30.578Z,85.15
2018-03-20T06:47:30.593Z,84.96
2018-03-20T06:48:30.653Z,85.24
2018-03-20T06:49:30.669Z,84.68
2018-03-20T06:50:30.716Z,84.01
2018-03-20T06:51:30.745Z,84.01
2018-03-20T06:52:30.786Z,84.01
2018-03-20T06:53:30.847Z,84.96
2018-03-20T06:54:30.866Z,84.68
2018-03-20T06:55:30.902Z,83.83
2018-03-20T06:56:30.943Z,84.20
2018-03-20T06:57:31.003Z,84.11
2018-03-20T06:58:31.020Z,83.64
2018-03-20T06:59:31.099Z,84.01
2018-03-20T07:00:31.100Z,84.11
2018-03-20T07:01:31.136Z,83.54
2018-03-20T07:02:31.198Z,84.20
2018-03-20T07:03:31.243Z,84.30
2018-03-20T07:04:32.207Z,84.20
2018-03-20T07:05:31.293Z,84.06
2018-03-20T07:06:31.333Z,83.36
2018-03-20T07:07:31.371Z,82.83
2018-03-20T07:08:31.446Z,81.98
2018-03-20T07:09:31.455Z,81.79
2018-03-20T07:10:31.488Z,81.88
2018-03-20T07:11:31.526Z,81.98
2018-03-20T07:12:31.569Z,81.41
2018-03-20T07:13:31.632Z,80.18
2018-03-20T07:14:31.669Z,79.80
2018-03-20T07:15:31.688Z,79.61
2018-03-20T07:16:31.725Z,79.61
2018-03-20T07:17:31.765Z,79.80
2018-03-20T07:18:31.814Z,79.71
2018-03-20T07:19:31.884Z,80.18
2018-03-20T07:20:31.882Z,79.90
2018-03-20T07:21:31.922Z,79.43
2018-03-20T07:22:31.966Z,78.95
2018-03-20T07:23:32.001Z,78.86
2018-03-20T07:24:32.079Z,78.29
2018-03-20T07:25:32.103Z,78.01
2018-03-20T07:26:32.122Z,78.58
2018-03-20T07:27:32.159Z,78.48
2018-03-20T07:28:32.245Z,78.95
2018-03-20T07:29:32.238Z,79.33
2018-03-20T07:30:32.312Z,79.61
2018-03-20T07:31:32.318Z,79.14
2018-03-20T07:32:32.359Z,78.48
2018-03-20T07:33:32.401Z,78.20
2018-03-20T07:34:32.483Z,78.20
2018-03-20T07:35:32.501Z,78.01
2018-03-20T07:36:32.517Z,78.10
2018-03-20T07:37:32.556Z,77.82
2018-03-20T07:38:32.596Z,77.82
2018-03-20T07:39:32.635Z,77.53
2018-03-20T07:40:32.710Z,76.31
2018-03-20T07:41:32.713Z,76.50
2018-03-20T07:42:32.756Z,76.31
2018-03-20T07:43:32.793Z,76.50
2018-03-20T07:44:32.837Z,76.21
2018-03-20T07:45:32.906Z,75.93
2018-03-20T07:46:32.919Z,76.21
2018-03-20T07:47:32.954Z,76.40
2018-03-20T07:48:32.993Z,76.31
2018-03-20T07:49:33.035Z,77.58
2018-03-20T07:50:33.100Z,76.34
2018-03-20T07:51:33.158Z,75.59
2018-03-20T07:52:33.157Z,74.83
2018-03-20T07:53:33.204Z,74.45
2018-03-20T07:54:33.233Z,74.17
2018-03-20T07:55:33.271Z,74.36
2018-03-20T07:56:33.344Z,73.98
2018-03-20T07:57:33.353Z,73.69
2018-03-20T07:58:33.397Z,73.22
2018-03-20T07:59:33.432Z,73.28
2018-03-20T08:00:33.476Z,74.26
2018-03-20T08:01:33.566Z,74.45
2018-03-20T08:02:33.557Z,74.64
2018-03-20T08:03:33.595Z,75.02
2018-03-20T08:04:33.647Z,73.98
2018-03-20T08:05:33.676Z,73.60
2018-03-20T08:06:33.744Z,74.64
2018-03-20T08:07:33.794Z,74.36
2018-03-20T08:08:33.795Z,75.02
2018-03-20T08:09:33.838Z,74.55
2018-03-20T08:10:33.881Z,74.26
2018-03-20T08:11:33.919Z,73.69
2018-03-20T08:12:33.982Z,73.79
2018-03-20T08:13:33.999Z,73.79
2018-03-20T08:14:34.038Z,73.50
2018-03-20T08:15:34.082Z,73.60
2018-03-20T08:16:34.120Z,73.79
2018-03-20T08:17:34.191Z,75.02
2018-03-20T08:18:34.202Z,74.17
2018-03-20T08:19:34.242Z,73.66
2018-03-20T08:20:34.285Z,73.50
2018-03-20T08:21:34.320Z,73.47
2018-03-20T08:22:34.386Z,72.90
2018-03-20T08:23:34.442Z,72.90
2018-03-20T08:24:34.440Z,73.37
2018-03-20T08:25:34.483Z,73.03
2018-03-20T08:26:34.524Z,72.94
2018-03-20T08:27:34.564Z,73.50
2018-03-20T08:28:34.653Z,73.41
2018-03-20T08:29:34.666Z,72.66
2018-03-20T08:30:34.688Z,71.90
2018-03-20T08:31:34.725Z,71.42
2018-03-20T08:32:34.764Z,71.23
2018-03-20T08:33:34.805Z,70.86
2018-03-20T08:34:34.879Z,71.84
2018-03-20T08:35:34.886Z,70.89
2018-03-20T08:36:34.925Z,70.98
2018-03-20T08:37:34.966Z,71.17
2018-03-20T08:38:35.008Z,71.27
2018-03-20T08:39:35.087Z,70.20
2018-03-20T08:40:35.089Z,70.48
2018-03-20T08:41:35.130Z,69.44
2018-03-20T08:42:35.174Z,69.72
2018-03-20T08:43:35.211Z,69.72
2018-03-20T08:44:35.276Z,69.53
2018-03-20T08:45:35.291Z,70.20
2018-03-20T08:46:35.358Z,70.10
2018-03-20T08:47:35.374Z,69.34
2018-03-20T08:48:35.416Z,69.72
2018-03-20T08:49:35.456Z,69.15
2018-03-20T08:50:35.496Z,69.38
2018-03-20T08:51:35.735Z,68.96
2018-03-20T08:52:35.583Z,70.14
2018-03-20T08:53:36.195Z,69.76
2018-03-20T08:54:35.662Z,69.85
2018-03-20T08:55:35.710Z,69.28
2018-03-20T08:56:35.779Z,69.57
2018-03-20T08:57:35.786Z,68.46
2018-03-20T08:58:35.828Z,67.65
2018-03-20T08:59:35.864Z,66.51
2018-03-20T09:00:35.914Z,65.94
2018-03-20T09:01:35.969Z,65.47
2018-03-20T09:02:47.658Z,65.75
2018-03-20T09:03:36.032Z,66.35
2018-03-20T09:04:36.071Z,63.98
2018-03-20T09:05:36.132Z,63.13
2018-03-20T09:06:36.184Z,63.42
2018-03-20T09:07:36.228Z,62.18
2018-03-20T09:08:36.242Z,61.33
2018-03-20T09:09:36.280Z,61.99
2018-03-20T09:10:36.323Z,62.56
2018-03-20T09:11:36.366Z,64.17
2018-03-20T09:12:36.466Z,65.22
2018-03-20T09:13:36.452Z,64.27
2018-03-20T09:14:36.496Z,63.13
2018-03-20T09:15:36.536Z,63.54
2018-03-20T09:16:36.586Z,63.39
2018-03-20T09:17:36.656Z,63.10
2018-03-20T09:18:36.667Z,60.66
2018-03-20T09:19:36.707Z,60.53
2018-03-20T09:20:36.754Z,58.83
2018-03-20T09:21:36.797Z,58.42
2018-03-20T09:22:36.874Z,58.99
2018-03-20T09:23:36.911Z,60.76
2018-03-20T09:24:36.930Z,61.61
2018-03-20T09:25:36.975Z,61.52
2018-03-20T09:26:37.020Z,62.02
2018-03-20T09:27:37.063Z,61.46
2018-03-20T09:28:37.136Z,60.89
2018-03-20T09:29:37.179Z,60.03
2018-03-20T09:30:37.197Z,61.01
2018-03-20T09:31:37.240Z,59.68
2018-03-20T09:32:37.285Z,60.85
2018-03-20T09:33:37.352Z,58.67
2018-03-20T09:34:37.407Z,58.29
2018-03-20T09:35:37.526Z,58.36
2018-03-20T09:36:37.465Z,57.88
2018-03-20T09:37:37.514Z,58.07
2018-03-20T09:38:37.563Z,58.20
2018-03-20T09:39:37.602Z,57.21
2018-03-20T09:40:37.686Z,56.71
2018-03-20T09:41:37.694Z,57.95
2018-03-20T09:42:37.742Z,57.57
2018-03-20T09:43:37.783Z,58.39
2018-03-20T09:44:37.828Z,58.96
2018-03-20T09:45:37.898Z,59.34
2018-03-20T09:46:37.924Z,60.10
2018-03-20T09:47:37.967Z,59.81
2018-03-20T09:48:38.012Z,59.81
2018-03-20T09:49:38.056Z,60.28
2018-03-20T09:50:38.125Z,60.19
2018-03-20T09:51:38.174Z,60.19
2018-03-20T09:52:38.190Z,60.10
2018-03-20T09:53:38.237Z,61.21
2018-03-20T09:54:38.283Z,61.11
2018-03-20T09:55:38.324Z,61.49
2018-03-20T09:56:38.398Z,61.30
2018-03-20T09:57:38.413Z,61.77
2018-03-20T09:58:38.460Z,62.05
2018-03-20T09:59:38.502Z,62.05
2018-03-20T10:00:38.547Z,62.43
2018-03-20T10:01:38.626Z,62.37
2018-03-20T10:02:38.635Z,61.99
2018-03-20T10:03:38.681Z,61.80
2018-03-20T10:04:38.724Z,62.28
2018-03-20T10:05:38.767Z,61.05
2018-03-20T10:06:38.834Z,60.95
2018-03-20T10:07:38.855Z,60.89
2018-03-20T10:08:38.909Z,60.22
2018-03-20T10:09:38.944Z,59.94
2018-03-20T10:10:38.993Z,59.84
2018-03-20T10:11:39.054Z,58.70
2018-03-20T10:12:39.099Z,58.61
2018-03-20T10:13:39.129Z,58.23
2018-03-20T10:14:39.166Z,58.33
2018-03-20T10:15:39.215Z,58.04
2018-03-20T10:16:39.253Z,60.38
2018-03-20T10:17:39.337Z,60.95
2018-03-20T10:18:39.341Z,62.08
2018-03-20T10:19:39.386Z,61.90
2018-03-20T10:20:39.432Z,61.49
2018-03-20T10:21:39.474Z,61.58
2018-03-20T10:22:39.548Z,61.40
2018-03-20T10:23:39.598Z,62.62
2018-03-20T10:24:39.611Z,63.57
2018-03-20T10:25:39.653Z,63.73
2018-03-20T10:26:39.697Z,64.39
2018-03-20T10:27:39.762Z,64.30
2018-03-20T10:28:39.812Z,65.91
2018-03-20T10:29:39.829Z,66.67
2018-03-20T10:30:39.889Z,67.43
2018-03-20T10:31:39.915Z,68.46
2018-03-20T10:32:39.996Z,69.60
2018-03-20T10:33:39.998Z,68.37
2018-03-20T10:34:40.044Z,67.90
2018-03-20T10:35:40.086Z,68.37
2018-03-20T10:36:40.126Z,67.71
2018-03-20T10:37:40.203Z,67.80
2018-03-20T10:38:40.213Z,68.84
2018-03-20T10:39:40.259Z,70.36
2018-03-20T10:40:40.317Z,70.07
2018-03-20T10:41:40.345Z,68.65
2018-03-20T10:42:40.418Z,69.51
2018-03-20T10:43:40.428Z,68.84
2018-03-20T10:44:40.472Z,69.22
2018-03-20T10:45:40.518Z,69.89
2018-03-20T10:46:40.555Z,69.32
2018-03-20T10:47:40.635Z,68.18
2018-03-20T10:48:40.641Z,68.08
2018-03-20T10:49:40.680Z,69.89
2018-03-20T10:50:40.744Z,68.94
2018-03-20T10:51:40.765Z,69.32
2018-03-20T10:52:40.841Z,69.32
2018-03-20T10:53:40.849Z,69.13
2018-03-20T10:54:40.894Z,68.65
2018-03-20T10:55:40.935Z,67.61
2018-03-20T10:56:40.981Z,68.46
2018-03-20T10:57:41.069Z,68.84
2018-03-20T10:58:41.064Z,68.18
2018-03-20T10:59:41.125Z,68.37
2018-03-20T11:00:41.146Z,67.80
2018-03-20T11:01:41.189Z,67.49
2018-03-20T11:02:41.256Z,68.27
2018-03-20T11:03:41.275Z,69.13
2018-03-20T11:04:41.315Z,70.07
2018-03-20T11:05:41.360Z,68.37
2018-03-20T11:06:41.402Z,68.46
2018-03-20T11:07:41.466Z,67.52
2018-03-20T11:08:41.515Z,66.95
2018-03-20T11:09:41.527Z,66.38
2018-03-20T11:10:41.572Z,66.57
2018-03-20T11:11:41.614Z,66.47
2018-03-20T11:12:41.654Z,66.09
2018-03-20T11:13:41.729Z,66.00
2018-03-20T11:14:41.741Z,65.63
2018-03-20T11:15:41.789Z,66.47
2018-03-20T11:16:41.827Z,67.24
2018-03-20T11:17:41.866Z,68.02
2018-03-20T11:18:41.940Z,67.74
2018-03-20T11:19:41.955Z,68.40
2018-03-20T11:20:41.997Z,67.74
2018-03-20T11:21:42.038Z,67.80
2018-03-20T11:22:42.083Z,66.99
2018-03-20T11:23:42.164Z,65.94
2018-03-20T11:24:42.204Z,66.32
2018-03-20T11:25:42.208Z,67.08
2018-03-20T11:26:42.255Z,66.51
2018-03-20T11:27:42.296Z,65.94
2018-03-20T11:28:42.362Z,66.60
2018-03-20T11:29:42.411Z,67.08
2018-03-20T11:30:42.423Z,67.49
2018-03-20T11:31:42.473Z,66.54
2018-03-20T11:32:43.235Z,66.16
2018-03-20T11:33:42.551Z,64.55
2018-03-20T11:34:42.619Z,63.32
2018-03-20T11:35:42.638Z,63.70
2018-03-20T11:36:42.715Z,63.98
2018-03-20T11:37:42.725Z,64.65
2018-03-20T11:38:42.770Z,62.56
2018-03-20T11:39:42.815Z,62.94
2018-03-20T11:40:42.881Z,62.18
2018-03-20T11:41:42.905Z,63.01
2018-03-20T11:42:42.950Z,62.24
2018-03-20T11:43:42.991Z,63.20
2018-03-20T11:44:43.038Z,62.82
2018-03-20T11:45:43.109Z,63.95
2018-03-20T11:46:43.126Z,65.12
2018-03-20T11:47:43.169Z,63.98
2018-03-20T11:48:43.215Z,63.32
2018-03-20T11:49:43.257Z,63.23
2018-03-20T11:50:43.330Z,62.08
2018-03-20T11:51:43.342Z,61.61
2018-03-20T11:52:43.388Z,60.86
2018-03-20T11:53:43.431Z,61.80
2018-03-20T11:54:43.477Z,63.13
2018-03-20T11:55:43.544Z,63.32
2018-03-20T11:56:43.561Z,62.85
2018-03-20T11:57:43.607Z,62.85
2018-03-20T11:58:43.677Z,62.66
2018-03-20T11:59:43.699Z,61.43
2018-03-20T12:00:43.740Z,61.33
2018-03-20T12:01:43.814Z,60.47
2018-03-20T12:02:43.831Z,60.86
2018-03-20T12:03:43.898Z,62.08
2018-03-20T12:04:43.915Z,62.47
2018-03-20T12:05:43.962Z,62.66
2018-03-20T12:06:44.005Z,62.08
2018-03-20T12:07:44.057Z,63.20
2018-03-20T12:08:44.116Z,63.42
2018-03-20T12:09:44.138Z,65.12
2018-03-20T12:10:44.183Z,65.97
2018-03-20T12:11:44.224Z,64.65
2018-03-20T12:12:44.311Z,63.70
2018-03-20T12:13:44.314Z,63.23
2018-03-20T12:14:44.358Z,64.33
2018-03-20T12:15:44.402Z,64.52
2018-03-20T12:16:44.448Z,63.76
2018-03-20T12:17:44.526Z,63.20
2018-03-20T12:18:44.534Z,63.20
2018-03-20T12:19:44.579Z,63.67
2018-03-20T12:20:44.625Z,63.67
2018-03-20T12:21:44.666Z,63.76
2018-03-20T12:22:44.741Z,64.04
2018-03-20T12:23:44.758Z,63.29
2018-03-20T12:24:44.797Z,63.35
2018-03-20T12:25:44.840Z,63.92
2018-03-20T12:26:44.884Z,64.49
2018-03-20T12:27:44.952Z,64.58
2018-03-20T12:28:44.997Z,64.39
2018-03-20T12:29:45.021Z,63.54
2018-03-20T12:30:45.061Z,64.58
2018-03-20T12:31:45.100Z,66.19
2018-03-20T12:32:45.142Z,64.61
2018-03-20T12:33:45.218Z,63.67
2018-03-20T12:34:45.230Z,63.48
2018-03-20T12:35:45.270Z,63.10
2018-03-20T12:36:45.317Z,63.29
2018-03-20T12:37:45.381Z,63.95
2018-03-20T12:38:45.503Z,63.67
2018-03-20T12:39:45.446Z,64.33
2018-03-20T12:40:45.489Z,62.91
2018-03-20T12:41:45.529Z,64.33
2018-03-20T12:42:45.572Z,63.39
2018-03-20T12:43:45.646Z,65.66
2018-03-20T12:44:45.657Z,64.42
2018-03-20T12:45:45.705Z,64.71
2018-03-20T12:46:45.801Z,64.08
2018-03-20T12:47:45.787Z,64.68
2018-03-20T12:48:45.854Z,65.16
2018-03-20T12:49:45.879Z,61.39
2018-03-20T12:50:45.943Z,59.88
2018-03-20T12:51:45.964Z,59.11
2018-03-20T12:52:46.009Z,59.21